createdAt,value
2019-03-09T00:13:36.062Z,10.03
2019-03-09T00:24:02.366Z,10.00
2019-03-09T01:14:24.271Z,9.90
2019-03-09T01:24:29.281Z,8.80
2019-03-09T02:04:45.639Z,8.18
2019-03-09T02:34:58.283Z,9.73
2019-03-09T03:05:13.388Z,8.35
2019-03-09T03:45:36.789Z,8.48
2019-03-09T03:55:41.316Z,10.23
2019-03-09T04:15:50.291Z,9.53
2019-03-09T04:56:06.679Z,10.93
2019-03-09T05:06:12.281Z,11.10
2019-03-09T05:50:12.651Z,12.93
2019-03-09T06:00:17.333Z,12.70
2019-03-09T06:30:29.619Z,13.53
2019-03-09T07:00:41.647Z,14.30
2019-03-09T07:10:46.244Z,14.90
2019-03-09T07:20:51.125Z,14.00
2019-03-09T07:41:02.280Z,13.40
2019-03-09T07:51:07.158Z,14.80
2019-03-09T08:01:11.682Z,13.10
2019-03-09T08:11:17.646Z,11.97
2019-03-09T08:51:34.232Z,11.00
2019-03-09T09:11:42.535Z,9.15
2019-03-09T09:31:51.594Z,8.83
2019-03-09T10:22:11.647Z,4.72
2019-03-09T10:52:24.264Z,3.77
2019-03-09T11:12:32.843Z,4.15
2019-03-09T11:22:38.372Z,3.65
2019-03-09T11:52:51.691Z,4.60
2019-03-09T12:02:56.261Z,5.08
2019-03-09T12:23:10.663Z,6.92
2019-03-09T12:33:15.264Z,5.97
2019-03-09T12:53:23.710Z,8.50
2019-03-09T13:03:28.266Z,6.62
2019-03-09T13:23:36.679Z,6.70
2019-03-09T13:33:41.326Z,6.25
2019-03-09T14:24:01.646Z,5.00
2019-03-09T14:54:13.660Z,5.20
2019-03-09T15:24:26.245Z,4.42
2019-03-09T15:34:31.503Z,6.60
2019-03-09T16:14:47.916Z,23.57
2019-03-09T16:24:53.091Z,19.32
2019-03-09T16:34:57.654Z,33.92
2019-03-09T18:05:36.125Z,43.02
2019-03-09T18:15:41.156Z,25.50
2019-03-09T18:25:46.212Z,16.50
2019-03-09T18:45:55.483Z,35.00
2019-03-09T18:56:00.289Z,36.20
2019-03-09T19:20:49.654Z,21.73
2019-03-09T19:51:02.139Z,10.78
2019-03-09T20:11:10.639Z,16.67
2019-03-09T20:41:22.652Z,3.27
2019-03-09T20:51:27.281Z,3.92
2019-03-09T21:31:43.662Z,7.12
2019-03-09T22:01:56.236Z,7.87
2019-03-09T22:22:04.828Z,8.05
2019-03-09T22:32:09.387Z,8.83
2019-03-09T23:12:26.122Z,6.60
2019-03-09T23:22:32.379Z,6.00
